Terminal Aerodrome Forecast
Issued by NWS Cleveland, OH

Home | Current Version | Previous Version | Text Only | Print | Product List | Glossary On
Versions: 1 2 3 4 5 6 7 8 9 10 11 12 13 14 15 16 17 18 19 20 21 22 23 24 25 26 27 28 29
000
FTUS41 KCLE 240900 AAB
TAFCLE
TAF AMD
KCLE 240900Z 2409/2512 18022G32KT P6SM OVC025
      TEMPO 2409/2413 -SHRA OVC015
     FM241800 22028G42KT P6SM OVC035
      TEMPO 2418/2420 3SM -SHRA
     FM250000 24025G35KT P6SM OVC035=

USA.gov is the U.S. government's official web portal to all federal, state and local government web resources and services.